createdAt,value
2023-04-27T00:02:25.859Z,8.23
2023-04-27T00:04:56.554Z,7.53
2023-04-27T00:07:29.201Z,9.83
2023-04-27T00:09:59.314Z,8.27
2023-04-27T00:12:29.210Z,12.20
2023-04-27T00:14:59.308Z,8.07
2023-04-27T00:17:29.308Z,8.90
2023-04-27T00:19:59.220Z,6.80
2023-04-27T00:22:32.017Z,7.87
2023-04-27T00:25:01.973Z,10.73
2023-04-27T00:27:31.869Z,7.30
2023-04-27T00:30:01.994Z,7.77
2023-04-27T00:32:31.861Z,9.43
2023-04-27T00:35:01.859Z,7.20
2023-04-27T00:37:34.384Z,8.43
2023-04-27T00:40:04.488Z,9.50
2023-04-27T00:42:34.436Z,11.27
2023-04-27T00:45:05.478Z,13.03
2023-04-27T00:47:36.070Z,10.73
2023-04-27T00:50:08.848Z,8.47
2023-04-27T00:52:41.748Z,10.57
2023-04-27T00:55:12.248Z,10.80
2023-04-27T00:57:42.317Z,11.43
2023-04-27T01:00:13.575Z,15.00
2023-04-27T01:02:44.443Z,18.33
2023-04-27T01:05:15.298Z,8.87
2023-04-27T01:07:48.161Z,10.07
2023-04-27T01:10:18.280Z,8.20
2023-04-27T01:12:48.764Z,11.60
2023-04-27T01:15:19.091Z,13.73
2023-04-27T01:17:49.292Z,11.97
2023-04-27T01:20:20.132Z,16.60
2023-04-27T01:22:52.662Z,7.57
2023-04-27T01:25:25.463Z,12.20
2023-04-27T01:27:55.455Z,9.87
2023-04-27T01:30:25.579Z,16.37
2023-04-27T01:32:58.144Z,11.97
2023-04-27T01:35:28.489Z,8.37
2023-04-27T01:38:00.344Z,13.17
2023-04-27T01:40:33.009Z,13.20
2023-04-27T01:43:03.498Z,11.30
2023-04-27T01:45:36.058Z,10.43
2023-04-27T01:48:06.544Z,10.37
2023-04-27T01:50:36.607Z,10.37
2023-04-27T01:53:06.458Z,12.73
2023-04-27T01:55:39.048Z,10.63
2023-04-27T01:58:08.921Z,8.77
2023-04-27T02:00:38.680Z,8.77
2023-04-27T02:03:09.031Z,10.10
2023-04-27T02:05:38.988Z,12.37
2023-04-27T02:08:09.158Z,9.63
2023-04-27T02:10:41.829Z,11.47
2023-04-27T02:13:12.727Z,10.53
2023-04-27T02:15:42.832Z,11.53
2023-04-27T02:18:13.026Z,9.03
2023-04-27T02:20:42.895Z,8.00
2023-04-27T02:23:13.215Z,9.03
2023-04-27T02:25:47.178Z,10.90
2023-04-27T02:28:17.341Z,9.60
2023-04-27T02:30:48.304Z,9.10
2023-04-27T02:33:18.464Z,10.17
2023-04-27T02:35:48.363Z,8.63
2023-04-27T02:38:18.456Z,12.20
2023-04-27T02:40:56.917Z,14.63
2023-04-27T02:43:26.974Z,10.07
2023-04-27T02:45:56.792Z,10.47
2023-04-27T02:48:27.224Z,10.80
2023-04-27T02:50:57.848Z,11.17
2023-04-27T02:53:28.052Z,14.30
2023-04-27T02:56:01.813Z,8.70
2023-04-27T02:58:32.260Z,10.33
2023-04-27T03:01:04.027Z,9.27
2023-04-27T03:03:33.962Z,13.53
2023-04-27T03:06:04.181Z,10.33
2023-04-27T03:08:34.147Z,12.20
2023-04-27T03:11:06.642Z,12.33
2023-04-27T03:13:42.164Z,10.17
2023-04-27T03:16:13.940Z,11.67
2023-04-27T03:18:44.023Z,10.50
2023-04-27T03:21:17.036Z,13.60
2023-04-27T03:23:47.084Z,9.93
2023-04-27T03:26:20.702Z,16.17
2023-04-27T03:28:50.729Z,16.63
2023-04-27T03:31:20.743Z,9.53
2023-04-27T03:33:50.900Z,11.77
2023-04-27T03:36:21.183Z,9.80
2023-04-27T03:38:51.045Z,11.07
2023-04-27T03:41:23.776Z,10.90
2023-04-27T03:43:53.773Z,11.30
2023-04-27T03:46:23.729Z,8.83
2023-04-27T03:48:53.562Z,10.00
2023-04-27T03:51:23.636Z,11.63
2023-04-27T03:53:53.569Z,12.60
2023-04-27T03:56:26.302Z,10.30
2023-04-27T03:58:56.117Z,12.20
2023-04-27T04:01:26.520Z,9.83
2023-04-27T04:03:56.764Z,13.03
2023-04-27T04:06:28.264Z,8.90
2023-04-27T04:08:58.765Z,11.40
2023-04-27T04:11:31.425Z,13.27
2023-04-27T04:14:01.366Z,10.50
2023-04-27T04:16:31.347Z,12.37
2023-04-27T04:19:01.365Z,10.63
2023-04-27T04:21:32.230Z,12.17
2023-04-27T04:24:02.331Z,10.23
2023-04-27T04:26:35.701Z,14.70
2023-04-27T04:29:05.680Z,12.10
2023-04-27T04:31:36.799Z,10.13
2023-04-27T04:34:10.465Z,14.60
2023-04-27T04:36:40.777Z,14.73
2023-04-27T04:39:10.936Z,16.80
2023-04-27T04:41:43.616Z,15.87
2023-04-27T04:44:13.736Z,11.13
2023-04-27T04:46:43.663Z,13.37
2023-04-27T04:49:14.000Z,19.00
2023-04-27T04:51:45.875Z,11.33
2023-04-27T04:54:16.068Z,20.43
2023-04-27T04:56:51.485Z,14.43
2023-04-27T04:59:21.474Z,16.17
2023-04-27T05:01:51.483Z,17.10
2023-04-27T05:04:21.573Z,13.80
2023-04-27T05:06:51.514Z,11.63
2023-04-27T05:09:21.523Z,21.67
2023-04-27T05:11:54.154Z,15.83
2023-04-27T05:14:24.116Z,10.17
2023-04-27T05:16:53.973Z,22.73
2023-04-27T05:19:25.000Z,15.43
2023-04-27T05:21:54.899Z,14.80
2023-04-27T05:24:24.829Z,14.17
2023-04-27T05:26:57.506Z,17.43
2023-04-27T05:29:27.521Z,15.73
2023-04-27T05:31:57.595Z,12.73
2023-04-27T05:34:27.609Z,18.30
2023-04-27T05:36:57.575Z,15.40
2023-04-27T05:39:28.098Z,13.43
2023-04-27T05:42:00.495Z,12.70
2023-04-27T05:44:30.350Z,15.70
2023-04-27T05:47:00.209Z,22.83
2023-04-27T05:49:30.095Z,17.23
2023-04-27T05:51:59.989Z,17.43
2023-04-27T05:54:30.333Z,14.43
2023-04-27T05:57:02.822Z,13.00
2023-04-27T05:59:33.014Z,17.70
2023-04-27T06:02:03.196Z,12.57
2023-04-27T06:04:33.543Z,11.10
2023-04-27T06:07:04.302Z,16.67
2023-04-27T06:09:34.460Z,17.47
2023-04-27T06:12:07.514Z,14.20
2023-04-27T06:14:39.459Z,14.43
2023-04-27T06:17:09.362Z,14.80
2023-04-27T06:19:39.561Z,10.23
2023-04-27T06:22:09.454Z,11.90
2023-04-27T06:24:39.455Z,11.77
2023-04-27T06:27:12.034Z,11.07
2023-04-27T06:29:42.084Z,10.90
2023-04-27T06:32:12.064Z,19.33
2023-04-27T06:34:42.103Z,10.07
2023-04-27T06:37:12.011Z,10.87
2023-04-27T06:39:42.432Z,10.27
2023-04-27T06:42:15.426Z,10.20
2023-04-27T06:44:45.735Z,9.73
2023-04-27T06:47:15.757Z,11.17
2023-04-27T06:49:46.958Z,9.67
2023-04-27T06:52:17.984Z,11.83
2023-04-27T06:54:47.910Z,6.33
2023-04-27T06:57:20.574Z,11.63
2023-04-27T06:59:50.596Z,8.73
2023-04-27T07:02:20.699Z,9.30
2023-04-27T07:04:51.565Z,6.43
2023-04-27T07:07:21.419Z,7.70
2023-04-27T07:09:51.352Z,10.00
2023-04-27T07:12:23.805Z,7.07
2023-04-27T07:14:53.705Z,10.77
2023-04-27T07:17:23.747Z,14.77
2023-04-27T07:19:53.828Z,8.33
2023-04-27T07:22:24.116Z,13.57
2023-04-27T07:24:54.187Z,11.33
2023-04-27T07:27:26.781Z,10.87
2023-04-27T07:29:56.895Z,8.90
2023-04-27T07:32:27.076Z,8.07
2023-04-27T07:34:58.932Z,7.53
2023-04-27T07:37:29.077Z,14.27
2023-04-27T07:39:59.840Z,10.40
2023-04-27T07:42:32.430Z,10.27
2023-04-27T07:45:02.601Z,7.40
2023-04-27T07:47:32.626Z,7.30
2023-04-27T07:50:02.727Z,11.63
2023-04-27T07:52:32.728Z,6.47
2023-04-27T07:55:04.054Z,8.20
2023-04-27T07:57:36.679Z,6.87
2023-04-27T08:00:11.534Z,7.10
2023-04-27T08:02:41.617Z,5.73
2023-04-27T08:05:12.562Z,8.93
2023-04-27T08:07:44.949Z,6.73
2023-04-27T08:10:15.524Z,7.07
2023-04-27T08:12:48.146Z,9.60
2023-04-27T08:15:18.290Z,6.53
2023-04-27T08:17:48.580Z,5.83
2023-04-27T08:20:18.538Z,4.03
2023-04-27T08:22:48.391Z,8.37
2023-04-27T08:25:18.331Z,9.53
2023-04-27T08:27:50.926Z,4.23
2023-04-27T08:30:21.476Z,10.73
2023-04-27T08:32:51.957Z,13.83
2023-04-27T08:35:22.148Z,7.03
2023-04-27T08:37:52.942Z,7.37
2023-04-27T08:40:25.050Z,9.03
2023-04-27T08:43:02.412Z,5.27
2023-04-27T08:45:32.254Z,5.97
2023-04-27T08:48:04.016Z,9.80
2023-04-27T08:50:34.059Z,8.07
2023-04-27T08:53:03.849Z,5.13
2023-04-27T08:55:34.107Z,7.97
2023-04-27T08:58:06.857Z,7.60
2023-04-27T09:00:42.873Z,6.70
2023-04-27T09:03:22.969Z,5.67
2023-04-27T09:06:04.491Z,6.47
2023-04-27T09:08:46.565Z,7.13
2023-04-27T09:11:17.316Z,4.40
2023-04-27T09:13:49.873Z,6.63
2023-04-27T09:16:26.774Z,5.93
2023-04-27T09:18:57.049Z,7.67
2023-04-27T09:21:28.207Z,5.30
2023-04-27T09:23:58.687Z,5.73
2023-04-27T09:26:32.067Z,6.23
2023-04-27T09:29:04.611Z,6.73
2023-04-27T09:31:35.688Z,8.00
2023-04-27T09:34:07.201Z,6.03
2023-04-27T09:36:37.589Z,6.30
2023-04-27T09:39:07.739Z,8.63
2023-04-27T09:41:38.400Z,7.70
2023-04-27T09:44:11.488Z,6.13
2023-04-27T09:46:41.768Z,5.37
2023-04-27T09:49:12.304Z,7.03
2023-04-27T09:51:42.616Z,2.70
2023-04-27T09:54:16.392Z,4.97
2023-04-27T09:56:57.859Z,3.53
2023-04-27T09:59:44.665Z,5.93
2023-04-27T10:02:25.158Z,3.50
2023-04-27T10:05:17.449Z,7.13
2023-04-27T10:07:49.050Z,5.03
2023-04-27T10:10:21.396Z,4.40
2023-04-27T10:13:00.752Z,6.10
2023-04-27T10:15:33.569Z,7.60
2023-04-27T10:18:08.974Z,6.75
2023-04-27T10:20:41.145Z,6.07
2023-04-27T10:23:11.251Z,5.95
2023-04-27T10:25:43.310Z,6.03
2023-04-27T10:28:19.313Z,6.57
2023-04-27T10:30:52.217Z,9.43
2023-04-27T10:33:25.212Z,6.03
2023-04-27T10:36:00.573Z,7.27
2023-04-27T10:38:33.330Z,7.80
2023-04-27T10:41:05.783Z,6.63
2023-04-27T10:43:38.076Z,9.17
2023-04-27T10:46:15.660Z,5.87
2023-04-27T10:48:46.815Z,5.53
2023-04-27T10:51:19.529Z,5.93
2023-04-27T10:53:55.086Z,6.23
2023-04-27T10:56:25.126Z,5.32
2023-04-27T10:58:55.117Z,7.07
2023-04-27T11:01:30.778Z,5.68
2023-04-27T11:04:01.783Z,4.72
2023-04-27T11:06:33.473Z,7.35
2023-04-27T11:09:04.706Z,6.00
2023-04-27T11:11:34.620Z,6.47
2023-04-27T11:14:04.674Z,8.52
2023-04-27T11:16:37.861Z,6.75
2023-04-27T11:19:08.237Z,5.85
2023-04-27T11:21:38.217Z,8.57
2023-04-27T11:24:10.546Z,6.75
2023-04-27T11:26:41.493Z,4.47
2023-04-27T11:29:14.536Z,5.15
2023-04-27T11:31:49.842Z,5.15
2023-04-27T11:34:22.863Z,8.75
2023-04-27T11:37:17.350Z,9.43
2023-04-27T11:39:48.851Z,6.25
2023-04-27T11:42:20.905Z,6.25
2023-04-27T11:44:56.109Z,8.48
2023-04-27T11:47:31.189Z,5.75
2023-04-27T11:50:02.526Z,4.60
2023-04-27T11:52:32.985Z,6.43
2023-04-27T11:55:04.241Z,6.63
2023-04-27T11:57:36.124Z,6.25
2023-04-27T12:00:11.655Z,7.07
2023-04-27T12:02:45.725Z,5.15
2023-04-27T12:05:16.639Z,6.18
2023-04-27T12:07:46.896Z,4.68
2023-04-27T12:10:16.735Z,7.13
2023-04-27T12:12:47.059Z,6.38
2023-04-27T12:15:17.174Z,5.45
2023-04-27T12:17:50.190Z,8.35
2023-04-27T12:20:20.101Z,7.30
2023-04-27T12:22:50.417Z,10.73
2023-04-27T12:25:21.510Z,7.22
2023-04-27T12:27:51.345Z,6.18
2023-04-27T12:30:21.706Z,7.78
2023-04-27T12:32:56.974Z,6.30
2023-04-27T12:35:26.867Z,5.97
2023-04-27T12:37:56.689Z,8.30
2023-04-27T12:40:26.618Z,5.78
2023-04-27T12:42:57.140Z,5.65
2023-04-27T12:45:28.520Z,6.35
2023-04-27T12:48:03.520Z,6.82
2023-04-27T12:50:34.815Z,7.47
2023-04-27T12:53:07.833Z,7.60
2023-04-27T12:55:37.805Z,8.40
2023-04-27T12:58:08.155Z,7.95
2023-04-27T13:00:38.713Z,7.25
2023-04-27T13:03:12.282Z,4.97
2023-04-27T13:05:42.500Z,8.55
2023-04-27T13:08:12.345Z,8.05
2023-04-27T13:10:45.167Z,7.13
2023-04-27T13:13:15.098Z,8.13
2023-04-27T13:15:44.952Z,6.57
2023-04-27T13:18:17.540Z,8.43
2023-04-27T13:20:48.171Z,7.97
2023-04-27T13:23:17.966Z,8.95
2023-04-27T13:25:47.907Z,7.47
2023-04-27T13:28:17.755Z,9.38
2023-04-27T13:30:49.016Z,9.88
2023-04-27T13:33:23.652Z,7.35
2023-04-27T13:35:53.834Z,10.15
2023-04-27T13:38:23.659Z,11.80
2023-04-27T13:40:53.585Z,6.75
2023-04-27T13:43:23.334Z,6.68
2023-04-27T13:45:55.410Z,9.70
2023-04-27T13:48:27.982Z,8.05
2023-04-27T13:50:58.369Z,7.90
2023-04-27T13:53:28.461Z,6.88
2023-04-27T13:55:59.511Z,7.63
2023-04-27T13:58:31.090Z,8.02
2023-04-27T14:01:01.788Z,9.15
2023-04-27T14:03:34.428Z,8.68
2023-04-27T14:06:04.492Z,8.73
2023-04-27T14:08:34.659Z,8.00
2023-04-27T14:11:06.016Z,7.53
2023-04-27T14:13:35.952Z,8.02
2023-04-27T14:16:06.766Z,8.07
2023-04-27T14:18:39.567Z,6.93
2023-04-27T14:21:09.590Z,7.28
2023-04-27T14:23:39.578Z,7.75
2023-04-27T14:26:10.695Z,7.45
2023-04-27T14:28:40.926Z,6.95
2023-04-27T14:31:10.931Z,7.13
2023-04-27T14:33:43.884Z,7.55
2023-04-27T14:36:13.970Z,9.77
2023-04-27T14:38:43.802Z,7.03
2023-04-27T14:41:13.781Z,7.05
2023-04-27T14:43:45.007Z,8.20
2023-04-27T14:46:20.848Z,8.05
2023-04-27T14:48:53.922Z,7.75
2023-04-27T14:51:24.022Z,7.85
2023-04-27T14:53:53.978Z,8.63
2023-04-27T14:56:24.478Z,8.93
2023-04-27T14:58:55.508Z,9.02
2023-04-27T15:01:25.938Z,10.73
2023-04-27T15:03:59.092Z,11.60
2023-04-27T15:06:30.585Z,7.25
2023-04-27T15:09:00.820Z,9.60
2023-04-27T15:11:30.770Z,6.07
2023-04-27T15:14:00.651Z,5.93
2023-04-27T15:16:30.842Z,7.82
2023-04-27T15:19:03.786Z,6.28
2023-04-27T15:21:34.435Z,7.43
2023-04-27T15:24:04.508Z,6.32
2023-04-27T15:26:37.219Z,8.90
2023-04-27T15:29:07.464Z,7.25
2023-04-27T15:31:37.784Z,6.85
2023-04-27T15:34:10.384Z,6.30
2023-04-27T15:36:40.271Z,6.53
2023-04-27T15:39:10.369Z,9.27
2023-04-27T15:41:40.973Z,6.53
2023-04-27T15:44:10.985Z,7.47
2023-04-27T15:46:40.975Z,8.20
2023-04-27T15:49:14.354Z,8.80
2023-04-27T15:51:44.578Z,9.50
2023-04-27T15:54:14.481Z,12.10
2023-04-27T15:56:44.370Z,9.73
2023-04-27T15:59:14.662Z,8.95
2023-04-27T16:01:44.677Z,8.77
2023-04-27T16:04:17.274Z,9.02
2023-04-27T16:06:47.254Z,8.00
2023-04-27T16:09:17.469Z,8.73
2023-04-27T16:11:47.949Z,10.00
2023-04-27T16:14:17.842Z,8.40
2023-04-27T16:16:48.305Z,7.28
2023-04-27T16:19:21.436Z,10.48
2023-04-27T16:21:51.337Z,9.90
2023-04-27T16:24:21.989Z,8.98
2023-04-27T16:26:51.907Z,8.38
2023-04-27T16:29:21.767Z,9.80
2023-04-27T16:31:54.386Z,9.95
2023-04-27T16:34:28.027Z,11.75
2023-04-27T16:37:01.379Z,13.95
2023-04-27T16:39:31.252Z,12.65
2023-04-27T16:42:01.145Z,13.18
2023-04-27T16:44:31.175Z,10.10
2023-04-27T16:47:01.174Z,8.77
2023-04-27T16:49:34.339Z,7.82
2023-04-27T16:52:04.731Z,6.40
2023-04-27T16:54:34.712Z,12.70
2023-04-27T16:57:04.824Z,10.10
2023-04-27T16:59:34.828Z,9.68
2023-04-27T17:02:17.004Z,6.88
2023-04-27T17:04:56.667Z,9.90
2023-04-27T17:07:28.730Z,7.88
2023-04-27T17:09:59.239Z,9.90
2023-04-27T17:12:29.224Z,8.13
2023-04-27T17:14:59.263Z,8.70
2023-04-27T17:17:29.219Z,10.50
2023-04-27T17:20:01.979Z,9.18
2023-04-27T17:22:33.180Z,7.22
2023-04-27T17:25:03.318Z,9.35
2023-04-27T17:27:33.388Z,8.45
2023-04-27T17:30:03.319Z,8.82
2023-04-27T17:32:33.335Z,9.77
2023-04-27T17:35:06.665Z,7.47
2023-04-27T17:37:36.561Z,10.80
2023-04-27T17:40:08.109Z,7.60
2023-04-27T17:42:38.075Z,7.95
2023-04-27T17:45:09.064Z,8.68
2023-04-27T17:47:39.014Z,9.77
2023-04-27T17:50:15.028Z,8.53
2023-04-27T17:52:44.997Z,8.32
2023-04-27T17:55:14.938Z,9.38
2023-04-27T17:57:44.844Z,7.83
2023-04-27T18:00:18.270Z,8.25
2023-04-27T18:02:50.068Z,10.67
2023-04-27T18:05:22.753Z,8.93
2023-04-27T18:07:52.643Z,12.90
2023-04-27T18:10:24.643Z,10.77
2023-04-27T18:12:54.592Z,7.73
2023-04-27T18:15:24.575Z,11.30
2023-04-27T18:17:55.519Z,9.03
2023-04-27T18:20:28.166Z,10.23
2023-04-27T18:22:58.003Z,10.87
2023-04-27T18:25:27.838Z,8.57
2023-04-27T18:27:58.113Z,10.80
2023-04-27T18:30:30.029Z,9.80
2023-04-27T18:33:00.242Z,10.33
2023-04-27T18:35:32.876Z,8.27
2023-04-27T18:38:03.679Z,10.33
2023-04-27T18:40:36.269Z,9.73
2023-04-27T18:43:06.477Z,12.10
2023-04-27T18:45:37.074Z,9.87
2023-04-27T18:48:07.901Z,8.67
2023-04-27T18:50:40.749Z,9.90
2023-04-27T18:53:11.609Z,9.30
2023-04-27T18:55:42.298Z,9.63
2023-04-27T18:58:12.360Z,8.27
2023-04-27T19:00:42.287Z,11.57
2023-04-27T19:03:12.594Z,11.63
2023-04-27T19:05:45.759Z,12.07
2023-04-27T19:08:15.882Z,11.87
2023-04-27T19:10:45.882Z,10.17
2023-04-27T19:13:16.098Z,10.20
2023-04-27T19:15:46.081Z,9.53
2023-04-27T19:18:16.083Z,8.03
2023-04-27T19:20:49.593Z,9.27
2023-04-27T19:23:20.203Z,13.67
2023-04-27T19:25:50.693Z,11.07
2023-04-27T19:28:23.609Z,11.67
2023-04-27T19:30:55.481Z,11.33
2023-04-27T19:33:25.417Z,8.97
2023-04-27T19:35:58.709Z,9.33
2023-04-27T19:38:28.640Z,10.30
2023-04-27T19:40:58.579Z,10.70
2023-04-27T19:43:29.424Z,11.00
2023-04-27T19:45:59.346Z,12.63
2023-04-27T19:48:29.278Z,10.47
2023-04-27T19:51:01.974Z,13.93
2023-04-27T19:53:31.856Z,11.17
2023-04-27T19:56:01.664Z,10.43
2023-04-27T19:58:34.859Z,9.93
2023-04-27T20:01:05.077Z,10.23
2023-04-27T20:03:35.759Z,13.30
2023-04-27T20:06:10.476Z,8.10
2023-04-27T20:08:40.532Z,12.37
2023-04-27T20:11:10.610Z,10.07
2023-04-27T20:13:40.515Z,12.97
2023-04-27T20:16:10.442Z,9.57
2023-04-27T20:18:40.372Z,9.17
2023-04-27T20:21:12.959Z,10.07
2023-04-27T20:23:43.109Z,9.83
2023-04-27T20:26:13.004Z,10.47
2023-04-27T20:28:42.904Z,11.00
2023-04-27T20:31:12.920Z,9.87
2023-04-27T20:33:42.839Z,7.70
2023-04-27T20:36:18.302Z,7.90
2023-04-27T20:38:49.096Z,10.27
2023-04-27T20:41:19.004Z,10.40
2023-04-27T20:43:49.028Z,9.50
2023-04-27T20:46:20.752Z,10.43
2023-04-27T20:48:51.037Z,7.50
2023-04-27T20:51:24.202Z,7.40
2023-04-27T20:53:54.054Z,9.20
2023-04-27T20:56:23.980Z,7.87
2023-04-27T20:58:53.791Z,8.10
2023-04-27T21:01:23.904Z,9.23
2023-04-27T21:03:54.162Z,13.17
2023-04-27T21:06:26.728Z,11.13
2023-04-27T21:08:57.730Z,10.57
2023-04-27T21:11:27.898Z,10.07
2023-04-27T21:13:57.753Z,8.23
2023-04-27T21:16:27.720Z,10.13
2023-04-27T21:18:57.924Z,9.83
2023-04-27T21:21:30.450Z,8.63
2023-04-27T21:24:07.348Z,8.93
2023-04-27T21:26:37.981Z,9.07
2023-04-27T21:29:08.649Z,10.83
2023-04-27T21:31:40.131Z,8.40
2023-04-27T21:34:10.403Z,8.43
2023-04-27T21:36:43.210Z,10.03
2023-04-27T21:39:13.266Z,8.40
2023-04-27T21:41:43.246Z,7.80
2023-04-27T21:44:13.350Z,9.80
2023-04-27T21:46:43.658Z,8.13
2023-04-27T21:49:13.664Z,8.57
2023-04-27T21:51:46.181Z,8.43
2023-04-27T21:54:16.571Z,7.43
2023-04-27T21:56:46.610Z,9.20
2023-04-27T21:59:16.726Z,9.30
2023-04-27T22:01:46.625Z,10.20
2023-04-27T22:04:17.098Z,13.97
2023-04-27T22:06:49.939Z,11.13
2023-04-27T22:09:20.196Z,11.47
2023-04-27T22:11:50.225Z,10.37
2023-04-27T22:14:20.171Z,12.83
2023-04-27T22:16:56.712Z,10.07
2023-04-27T22:19:26.966Z,12.30
2023-04-27T22:22:00.163Z,9.80
2023-04-27T22:24:30.205Z,9.90
2023-04-27T22:27:00.045Z,10.33
2023-04-27T22:29:31.633Z,10.33
2023-04-27T22:32:01.985Z,10.97
2023-04-27T22:34:32.190Z,9.47
2023-04-27T22:37:05.164Z,17.03
2023-04-27T22:39:35.390Z,10.07
2023-04-27T22:42:05.409Z,11.70
2023-04-27T22:44:35.638Z,12.20
2023-04-27T22:47:06.497Z,9.70
2023-04-27T22:49:37.505Z,10.87
2023-04-27T22:52:10.736Z,10.33
2023-04-27T22:54:40.912Z,10.17
2023-04-27T22:57:10.783Z,11.20
2023-04-27T22:59:41.061Z,11.30
2023-04-27T23:02:11.351Z,11.13
2023-04-27T23:04:41.411Z,10.07
2023-04-27T23:07:17.674Z,8.80
2023-04-27T23:09:48.387Z,8.23
2023-04-27T23:12:18.318Z,11.53
2023-04-27T23:14:48.478Z,8.90
2023-04-27T23:17:18.384Z,14.53
2023-04-27T23:19:49.006Z,12.37
2023-04-27T23:22:21.608Z,11.43
2023-04-27T23:24:52.038Z,9.13
2023-04-27T23:27:22.782Z,11.10
2023-04-27T23:29:52.948Z,11.40
2023-04-27T23:32:23.345Z,13.60
2023-04-27T23:34:56.180Z,10.40
2023-04-27T23:37:29.083Z,9.93
2023-04-27T23:39:58.902Z,12.03
2023-04-27T23:42:28.807Z,10.70
2023-04-27T23:44:58.682Z,10.73
2023-04-27T23:47:28.575Z,12.67
2023-04-27T23:50:01.387Z,11.90
2023-04-27T23:52:33.902Z,14.00
2023-04-27T23:55:03.942Z,14.30
2023-04-27T23:57:33.831Z,9.07
